Palestine, TX

7:10 AM CST on December 07, 2016 (GMT -0600)
North Palestine | | Change Station

Elev 581 ft 31.84 °N, 95.65 °W | Updated 31 seconds ago

Overcast
Overcast
47.1 °F
Feels Like 47 °F
N
1.0
Wind Variable Wind from East
Gusts 3.0 mph

Today
High -- | Low -- °F
--% Chance of Precip.
Yesterday
High -- | Low -- °F
Precip. -- in
Pressure 30.08 in
Visibility 4.0 miles
Clouds Overcast 600 ft
Windchill 47 °F
Dew Point 46 °F
Humidity 97%
Rainfall 0.00 in
Snow Depth Not available.
7:09 AM 5:18 PM
First Quarter, 52% visible
METAR KPSN 071255Z AUTO 07003KT 4SM BR OVC006 08/08 A3008 RMK AO2 T00880085
Pressure 30.08 in
Visibility 4.0 miles
Clouds Overcast 600 ft
Windchill 47 °F
Dew Point 46 °F
Humidity 97%
Rainfall 0.00 in
Snow Depth Not available.
7:09 AM 5:18 PM
First Quarter, 52% visible
METAR KPSN 071255Z AUTO 07003KT 4SM BR OVC006 08/08 A3008 RMK AO2 T00880085

10-Day Weather Forecast

Almanac

Astronomy

Dec. 07, 2016 Rise Set
Actual Time
Civil Twilight
Nautical Twilight
Astronomical Twilight
Moon
Length of Visible Light
Length of Day
Tomorrow will be .
, % of the Moon is Illuminated

Today's Extremes

State Highs State Lows

Community

WunderPhotos

Upload Photos

1,956,112 photos uploaded!

WunderBlog® & News

Nearby

Air Quality

  Air Quality AQ Index Pollutant
Not available.

Snow Depth

Station Depth Elevation

Earthquake Activity

City Distance Mag. Time & Date
Minimum magnitude displayed is 2.5.

Coastal Water Temperatures

Place Temperature

Stations

Nearby Weather Stations

Station Location Temp. Windchill Dew Point Humidity Wind Precip. Elev Updated Type
                   

Watches & Warnings

There are currently no watches in effect.